Time;durP1;ratioP1;P1;durP2;ratioP2;P2;SDS_P1;SDS_P2;PMS_P1;PMS_P2;Temp;Humidity;BMP_temperature;BMP_pressure;BME280_temperature;BME280_humidity;BME280_pressure;Samples;Min_cycle;Max_cycle;Signal;HPM_P1;HPM_P2
2023/09/07 00:00:15;;;;;;;0.88;0.88;;;12.80;99.90;;;;;;5053958;28;20193;-74
2023/09/07 00:02:40;;;;;;;19.05;0.82;;;12.70;99.90;;;;;;5071666;28;20185;-74
2023/09/07 00:05:07;;;;;;;0.43;0.43;;;12.70;99.90;;;;;;5073579;28;20232;-74
2023/09/07 00:07:33;;;;;;;0.40;0.40;;;12.60;99.90;;;;;;5090537;28;20278;-75
2023/09/07 00:09:59;;;;;;;0.50;0.50;;;12.60;99.90;;;;;;5071933;28;20622;-74
2023/09/07 00:12:25;;;;;;;0.50;0.50;;;12.50;99.90;;;;;;5053669;28;20200;-75
2023/09/07 00:14:54;;;;;;;0.75;0.75;;;12.50;99.90;;;;;;5053906;28;20203;-74
2023/09/07 00:17:19;;;;;;;0.40;0.40;;;12.50;99.90;;;;;;5071573;28;20205;-74
2023/09/07 00:19:48;;;;;;;0.50;0.50;;;12.40;99.90;;;;;;5071881;28;20242;-75
2023/09/07 00:22:14;;;;;;;0.40;0.40;;;12.40;99.90;;;;;;5071774;28;20671;-74
2023/09/07 00:24:40;;;;;;;0.40;0.40;;;12.40;99.90;;;;;;5071264;28;20196;-74
2023/09/07 00:27:07;;;;;;;0.40;0.40;;;12.40;99.90;;;;;;5071803;28;20197;-74
2023/09/07 00:29:34;;;;;;;0.57;0.57;;;12.30;99.90;;;;;;5053527;28;20208;-74
2023/09/07 00:32:00;;;;;;;0.40;0.40;;;12.30;99.90;;;;;;5071505;28;20224;-74
2023/09/07 00:34:26;;;;;;;0.50;0.50;;;12.20;99.90;;;;;;5071443;28;20228;-74
2023/09/07 00:36:51;;;;;;;1.00;0.90;;;12.20;99.90;;;;;;5071564;28;20200;-74
2023/09/07 00:39:17;;;;;;;0.68;0.68;;;12.20;99.90;;;;;;5071620;28;20199;-74
2023/09/07 00:41:43;;;;;;;1.75;1.25;;;12.20;99.90;;;;;;5071514;28;20189;-74
2023/09/07 00:44:08;;;;;;;0.40;0.40;;;12.20;99.90;;;;;;5071270;28;20201;-74
2023/09/07 00:46:34;;;;;;;0.40;0.40;;;12.20;99.90;;;;;;5074020;28;20196;-74
2023/09/07 00:49:00;;;;;;;0.40;0.40;;;12.30;99.90;;;;;;5075447;28;20199;-74
2023/09/07 00:51:26;;;;;;;0.50;0.50;;;12.30;99.90;;;;;;5075243;28;20197;-69
2023/09/07 00:53:52;;;;;;;0.70;0.70;;;12.50;99.90;;;;;;5075334;28;20330;-69
2023/09/07 00:56:19;;;;;;;0.40;0.40;;;12.70;99.90;;;;;;5074994;28;20204;-70
2023/09/07 00:58:45;;;;;;;0.47;0.47;;;12.80;99.90;;;;;;5075287;28;20197;-68
2023/09/07 01:01:10;;;;;;;0.65;0.65;;;13.00;99.90;;;;;;5057365;28;20204;-70
2023/09/07 01:03:36;;;;;;;0.40;0.40;;;13.00;99.90;;;;;;5090360;28;20212;-72
2023/09/07 01:06:04;;;;;;;3.15;0.82;;;13.10;99.90;;;;;;5069280;28;20224;-75
2023/09/07 01:08:41;;;;;;;0.20;0.20;;;13.20;99.90;;;;;;5056915;28;20296;-74
2023/09/07 01:11:17;;;;;;;0.10;0.10;;;13.30;99.90;;;;;;5075019;28;20196;-75
2023/09/07 01:13:43;;;;;;;0.22;0.22;;;13.40;99.90;;;;;;5056912;28;20193;-74
2023/09/07 01:16:11;;;;;;;0.25;0.25;;;13.50;99.90;;;;;;5074513;28;20205;-74
2023/09/07 01:18:37;;;;;;;0.30;0.30;;;13.60;99.90;;;;;;5074734;28;20590;-75
2023/09/07 01:21:07;;;;;;;0.20;0.20;;;13.70;99.90;;;;;;5056439;28;20632;-75
2023/09/07 01:23:35;;;;;;;0.30;0.30;;;13.70;99.90;;;;;;5074434;28;20295;-75
2023/09/07 01:26:02;;;;;;;0.10;0.10;;;13.80;99.90;;;;;;5074664;28;20197;-75
2023/09/07 01:28:28;;;;;;;0.10;0.10;;;13.80;99.90;;;;;;5074627;28;20185;-75
2023/09/07 01:30:53;;;;;;;0.30;0.30;;;13.80;99.90;;;;;;5074399;28;20549;-75
2023/09/07 01:33:19;;;;;;;1.35;1.05;;;13.90;99.90;;;;;;5056589;28;20228;-75
2023/09/07 01:35:46;;;;;;;0.35;0.30;;;13.90;99.90;;;;;;5074384;28;20242;-75
2023/09/07 01:38:12;;;;;;;0.20;0.20;;;13.90;99.90;;;;;;5074697;28;20193;-74
2023/09/07 01:40:37;;;;;;;0.52;0.45;;;14.00;99.90;;;;;;5074125;28;20725;-75
2023/09/07 01:43:03;;;;;;;0.47;0.47;;;14.00;99.90;;;;;;5074448;28;20193;-75
2023/09/07 01:45:29;;;;;;;0.50;0.50;;;14.00;99.90;;;;;;5074635;28;20664;-74
2023/09/07 01:47:55;;;;;;;0.35;0.35;;;14.00;99.90;;;;;;5056517;28;20259;-75
2023/09/07 01:50:20;;;;;;;0.20;0.20;;;14.00;99.90;;;;;;5074100;28;20231;-74
2023/09/07 01:52:49;;;;;;;0.20;0.20;;;14.00;99.90;;;;;;5056738;28;20530;-75
2023/09/07 01:55:15;;;;;;;0.22;0.22;;;14.00;99.90;;;;;;5074226;28;20201;-76
2023/09/07 01:57:40;;;;;;;0.10;0.10;;;14.10;99.90;;;;;;5073139;28;20228;-74
2023/09/07 02:00:07;;;;;;;0.20;0.20;;;14.10;99.90;;;;;;5074286;28;20318;-75
2023/09/07 02:02:32;;;;;;;0.43;0.43;;;14.10;99.90;;;;;;5073957;28;20192;-74
2023/09/07 02:04:58;;;;;;;0.30;0.30;;;14.00;99.90;;;;;;5073972;28;20270;-74
2023/09/07 02:07:24;;;;;;;0.20;0.20;;;14.10;99.90;;;;;;5073851;28;20250;-73
2023/09/07 02:09:51;;;;;;;0.10;0.10;;;14.00;99.90;;;;;;5074069;28;20201;-69
2023/09/07 02:12:17;;;;;;;0.17;0.17;;;14.00;99.90;;;;;;5055102;28;20205;-71
2023/09/07 02:14:43;;;;;;;0.28;0.28;;;14.00;99.90;;;;;;5054576;28;20227;-71
2023/09/07 02:17:08;;;;;;;0.25;0.25;;;14.00;99.90;;;;;;5054703;28;20222;-71
2023/09/07 02:19:35;;;;;;;0.20;0.20;;;14.00;99.90;;;;;;5072457;28;20280;-71
2023/09/07 02:22:01;;;;;;;0.30;0.30;;;14.00;99.90;;;;;;5054648;28;20224;-71
2023/09/07 02:24:26;;;;;;;0.13;0.13;;;13.90;99.90;;;;;;5072304;28;20250;-71
2023/09/07 02:26:52;;;;;;;0.20;0.20;;;13.90;99.90;;;;;;5072744;28;20192;-71
2023/09/07 02:29:18;;;;;;;5.18;1.23;;;13.90;99.90;;;;;;5072380;28;20657;-71
2023/09/07 02:31:43;;;;;;;0.20;0.20;;;14.00;99.90;;;;;;5072445;28;20624;-72
2023/09/07 02:34:09;;;;;;;0.20;0.20;;;14.00;99.90;;;;;;5054397;28;20207;-72
2023/09/07 02:36:35;;;;;;;4.57;0.65;;;14.00;99.90;;;;;;5071876;28;20209;-72
2023/09/07 02:39:01;;;;;;;0.90;0.30;;;14.00;99.90;;;;;;5054320;28;20192;-72
2023/09/07 02:41:27;;;;;;;0.20;0.20;;;14.00;99.90;;;;;;5053936;28;20197;-72
2023/09/07 02:43:53;;;;;;;0.30;0.30;;;14.00;99.90;;;;;;5072251;28;20196;-73
2023/09/07 02:46:18;;;;;;;0.40;0.40;;;14.00;99.90;;;;;;5054049;28;20197;-72
2023/09/07 02:48:44;;;;;;;0.30;0.30;;;14.00;99.90;;;;;;5072219;28;20211;-72
2023/09/07 02:51:10;;;;;;;0.20;0.20;;;14.00;99.90;;;;;;5072118;28;20196;-72
2023/09/07 02:53:35;;;;;;;0.85;0.68;;;14.10;99.90;;;;;;5054045;28;20197;-72
2023/09/07 02:56:04;;;;;;;0.30;0.30;;;14.10;99.90;;;;;;5072043;28;20201;-72
2023/09/07 02:58:30;;;;;;;0.35;0.30;;;14.10;99.90;;;;;;5053756;28;20233;-72
2023/09/07 03:00:56;;;;;;;0.20;0.20;;;14.10;99.90;;;;;;5072101;28;20196;-72
2023/09/07 03:03:22;;;;;;;0.10;0.10;;;14.20;99.90;;;;;;5071374;28;20205;-73
2023/09/07 03:05:47;;;;;;;0.43;0.43;;;14.10;99.90;;;;;;5051077;28;20244;-72
2023/09/07 03:08:13;;;;;;;0.13;0.13;;;14.20;99.90;;;;;;5050483;28;20194;-73
2023/09/07 03:10:39;;;;;;;0.50;0.50;;;14.20;99.90;;;;;;5050842;28;20225;-70
2023/09/07 03:13:06;;;;;;;0.17;0.17;;;14.20;99.90;;;;;;5050802;28;20205;-70
2023/09/07 03:15:32;;;;;;;0.38;0.38;;;14.20;99.90;;;;;;5054161;28;20201;-71
2023/09/07 03:17:58;;;;;;;0.32;0.32;;;14.30;99.90;;;;;;5071383;28;20213;-70
2023/09/07 03:20:23;;;;;;;4.35;0.45;;;14.30;99.90;;;;;;5071787;28;20322;-69
2023/09/07 03:22:49;;;;;;;0.30;0.30;;;14.30;99.90;;;;;;5072571;28;20235;-68
2023/09/07 03:25:15;;;;;;;0.68;0.40;;;14.30;99.90;;;;;;5057551;28;20732;-69
2023/09/07 03:27:41;;;;;;;0.35;0.35;;;14.30;99.90;;;;;;5052456;28;20197;-68
2023/09/07 03:30:07;;;;;;;0.10;0.10;;;14.30;99.90;;;;;;5052540;28;20683;-68
2023/09/07 03:32:34;;;;;;;0.20;0.20;;;14.30;99.90;;;;;;5051964;28;20201;-69
2023/09/07 03:35:09;;;;;;;3.75;0.95;;;14.40;99.90;;;;;;5047871;28;20575;-68
2023/09/07 03:37:35;;;;;;;0.20;0.20;;;14.40;99.90;;;;;;5052180;28;20694;-69
2023/09/07 03:40:01;;;;;;;0.10;0.10;;;14.40;99.90;;;;;;5052422;28;20321;-69
2023/09/07 03:42:26;;;;;;;0.88;0.70;;;14.40;99.90;;;;;;5052157;28;20198;-68
2023/09/07 03:44:52;;;;;;;0.28;0.28;;;14.40;99.90;;;;;;5046933;28;20193;-68
2023/09/07 03:47:18;;;;;;;0.10;0.10;;;14.40;99.90;;;;;;5051248;28;20209;-70
2023/09/07 03:49:44;;;;;;;0.20;0.20;;;14.40;99.90;;;;;;5045361;28;20209;-67
2023/09/07 03:52:11;;;;;;;0.10;0.10;;;14.50;99.90;;;;;;5050897;28;20219;-69
2023/09/07 03:54:37;;;;;;;0.45;0.40;;;14.50;99.90;;;;;;5047089;28;20197;-69
2023/09/07 03:57:03;;;;;;;0.20;0.20;;;14.50;99.90;;;;;;5052014;28;20691;-69
2023/09/07 03:59:29;;;;;;;0.63;0.63;;;14.50;99.90;;;;;;5050582;28;20587;-69
2023/09/07 04:01:58;;;;;;;0.38;0.22;;;14.50;99.90;;;;;;5051999;28;20385;-69
2023/09/07 04:04:23;;;;;;;0.20;0.20;;;14.50;99.90;;;;;;5056135;28;20683;-69
2023/09/07 04:06:49;;;;;;;0.10;0.10;;;14.50;99.90;;;;;;5053986;28;20287;-69
2023/09/07 04:09:15;;;;;;;0.10;0.10;;;14.60;99.90;;;;;;5053976;28;20824;-69
2023/09/07 04:11:41;;;;;;;0.20;0.20;;;14.60;99.90;;;;;;5054155;28;20253;-69
2023/09/07 04:14:07;;;;;;;0.40;0.40;;;14.60;99.90;;;;;;5071959;28;20604;-69
2023/09/07 04:16:33;;;;;;;0.13;0.13;;;14.60;99.90;;;;;;5071543;28;20212;-69
2023/09/07 04:18:58;;;;;;;0.70;0.47;;;14.60;99.90;;;;;;5054062;28;20218;-70
2023/09/07 04:21:24;;;;;;;0.20;0.20;;;14.70;99.90;;;;;;5058356;28;20513;-74
2023/09/07 04:23:50;;;;;;;0.20;0.20;;;14.70;99.90;;;;;;5078350;28;20216;-74
2023/09/07 04:26:16;;;;;;;1.45;0.68;;;14.70;99.90;;;;;;5060499;28;20201;-74
2023/09/07 04:28:42;;;;;;;0.20;0.20;;;14.70;99.90;;;;;;5078313;28;20604;-75
2023/09/07 04:31:08;;;;;;;0.20;0.20;;;14.70;99.90;;;;;;5060489;28;20211;-75
2023/09/07 04:33:34;;;;;;;3.63;1.00;;;14.80;99.90;;;;;;5078175;28;20201;-74
2023/09/07 04:36:10;;;;;;;0.30;0.30;;;14.80;99.90;;;;;;5078216;28;20192;-74
2023/09/07 04:38:36;;;;;;;0.90;0.38;;;14.80;99.90;;;;;;5078384;28;20717;-74
2023/09/07 04:41:12;;;;;;;0.10;0.10;;;14.90;99.90;;;;;;5060356;28;20197;-74
2023/09/07 04:43:43;;;;;;;1.05;0.73;;;14.90;99.90;;;;;;5078346;28;20208;-74
2023/09/07 04:46:09;;;;;;;0.45;0.45;;;14.90;99.90;;;;;;5078556;28;20682;-74
2023/09/07 04:48:41;;;;;;;0.90;0.82;;;15.00;99.90;;;;;;5078222;28;20193;-74
2023/09/07 04:51:08;;;;;;;0.22;0.22;;;15.00;99.90;;;;;;5040423;28;20690;-74
2023/09/07 04:53:35;;;;;;;0.50;0.50;;;15.00;99.90;;;;;;5058031;28;20186;-73
2023/09/07 04:56:06;;;;;;;0.28;0.28;;;15.00;99.90;;;;;;5058171;28;20198;-74
2023/09/07 04:58:32;;;;;;;0.45;0.45;;;15.10;99.90;;;;;;5058132;28;20197;-74
2023/09/07 05:01:03;;;;;;;0.40;0.40;;;15.20;99.90;;;;;;5058375;28;20271;-74
2023/09/07 05:03:29;;;;;;;0.38;0.38;;;15.20;99.90;;;;;;5039891;28;20328;-75
2023/09/07 05:05:56;;;;;;;0.17;0.17;;;15.30;99.90;;;;;;5048203;28;20227;-74
2023/09/07 05:08:22;;;;;;;0.68;0.65;;;15.30;99.90;;;;;;5060071;28;20563;-74
2023/09/07 05:10:48;;;;;;;0.20;0.20;;;15.30;99.90;;;;;;5060031;28;20242;-75
2023/09/07 05:13:14;;;;;;;0.20;0.20;;;15.30;99.90;;;;;;5059994;28;20192;-75
2023/09/07 05:15:50;;;;;;;0.30;0.30;;;15.40;99.90;;;;;;5078092;28;20307;-75
2023/09/07 05:18:17;;;;;;;0.20;0.20;;;15.40;99.90;;;;;;5059919;28;20212;-74
2023/09/07 05:20:48;;;;;;;0.20;0.20;;;15.40;99.90;;;;;;5060008;28;20209;-75
2023/09/07 05:23:19;;;;;;;0.20;0.20;;;15.40;99.90;;;;;;5060017;28;20196;-75
2023/09/07 05:26:04;;;;;;;0.40;0.40;;;15.40;99.90;;;;;;5059516;28;20204;-75
2023/09/07 05:28:30;;;;;;;0.80;0.30;;;15.60;99.90;;;;;;5059559;28;20196;-76
2023/09/07 05:30:55;;;;;;;0.25;0.25;;;15.70;99.90;;;;;;5078017;28;20196;-75
2023/09/07 05:33:21;;;;;;;0.38;0.38;;;15.70;99.90;;;;;;5055851;28;20208;-75
2023/09/07 05:35:47;;;;;;;0.60;0.60;;;15.70;99.90;;;;;;5074613;28;20615;-75
2023/09/07 05:38:13;;;;;;;0.20;0.20;;;15.70;99.90;;;;;;5074604;28;20559;-75
2023/09/07 05:40:44;;;;;;;0.30;0.30;;;15.80;99.90;;;;;;5074383;28;20216;-69
2023/09/07 05:43:11;;;;;;;0.20;0.20;;;15.80;99.90;;;;;;5074622;28;20196;-69
2023/09/07 05:45:40;;;;;;;0.47;0.47;;;15.80;99.90;;;;;;5073920;28;20567;-69
2023/09/07 05:48:07;;;;;;;1.13;0.80;;;15.90;99.90;;;;;;5074312;28;20657;-70
2023/09/07 05:50:38;;;;;;;0.52;0.43;;;15.90;99.90;;;;;;5073990;28;20189;-70
2023/09/07 05:53:05;;;;;;;0.10;0.10;;;15.90;99.90;;;;;;5056139;28;20245;-69
2023/09/07 05:55:31;;;;;;;0.43;0.43;;;16.00;99.90;;;;;;5073983;28;20512;-70
2023/09/07 05:57:57;;;;;;;0.43;0.35;;;16.00;99.90;;;;;;5073994;28;20205;-71
2023/09/07 06:00:23;;;;;;;0.73;0.73;;;16.10;99.90;;;;;;5073993;28;20534;-70
2023/09/07 06:02:49;;;;;;;1.13;0.88;;;16.10;99.90;;;;;;5055048;28;20193;-71
2023/09/07 06:05:16;;;;;;;12.13;1.58;;;16.10;99.90;;;;;;5073467;28;20224;-70
2023/09/07 06:07:42;;;;;;;0.68;0.68;;;16.10;99.90;;;;;;5055521;28;20196;-70
2023/09/07 06:10:08;;;;;;;1.55;0.98;;;16.20;99.90;;;;;;5055366;28;20197;-71
2023/09/07 06:12:34;;;;;;;1.33;0.73;;;16.20;99.90;;;;;;5073651;28;20266;-71
2023/09/07 06:15:00;;;;;;;0.88;0.85;;;16.20;99.90;;;;;;5055795;28;20423;-70
2023/09/07 06:17:27;;;;;;;0.80;0.68;;;16.20;99.90;;;;;;5055509;28;20311;-70
2023/09/07 06:19:53;;;;;;;0.40;0.40;;;16.10;99.90;;;;;;5055506;28;20199;-71
2023/09/07 06:22:19;;;;;;;1.15;1.05;;;16.10;99.90;;;;;;5055624;28;20227;-71
2023/09/07 06:24:44;;;;;;;0.30;0.30;;;16.10;99.90;;;;;;5073884;28;20646;-72
2023/09/07 06:27:10;;;;;;;0.47;0.47;;;16.10;99.90;;;;;;5073587;28;20556;-70
2023/09/07 06:29:36;;;;;;;2.53;1.42;;;16.10;99.90;;;;;;5073119;28;20205;-70
2023/09/07 06:32:01;;;;;;;0.70;0.68;;;16.00;99.90;;;;;;5073406;28;20276;-70
2023/09/07 06:34:27;;;;;;;2.90;1.58;;;16.00;99.90;;;;;;5072993;28;20208;-70
2023/09/07 06:36:53;;;;;;;5.03;2.40;;;16.00;99.90;;;;;;5073281;28;20239;-70
2023/09/07 06:39:18;;;;;;;0.65;0.45;;;16.10;99.90;;;;;;5072896;28;20205;-71
2023/09/07 06:41:46;;;;;;;1.58;0.95;;;16.10;99.90;;;;;;5072863;28;20193;-71
2023/09/07 06:44:11;;;;;;;1.30;0.85;;;16.10;99.90;;;;;;5073205;28;20193;-70
2023/09/07 06:46:37;;;;;;;0.85;0.85;;;16.20;99.90;;;;;;5073320;28;20576;-71
2023/09/07 06:49:03;;;;;;;1.55;1.17;;;16.20;99.90;;;;;;5055301;28;20196;-70
2023/09/07 06:51:30;;;;;;;1.00;0.95;;;16.10;99.90;;;;;;5072945;28;20207;-70
2023/09/07 06:53:56;;;;;;;0.60;0.57;;;16.10;99.90;;;;;;5055122;28;20200;-70
2023/09/07 06:56:22;;;;;;;1.05;0.60;;;16.10;99.90;;;;;;5072799;28;20200;-70
2023/09/07 06:58:48;;;;;;;1.45;1.05;;;16.00;99.90;;;;;;5054994;28;20239;-70
2023/09/07 07:01:14;;;;;;;2.20;0.88;;;16.00;99.90;;;;;;5072797;28;20216;-70
2023/09/07 07:03:39;;;;;;;0.98;0.95;;;16.00;99.90;;;;;;5054774;28;20670;-70
2023/09/07 07:06:07;;;;;;;1.77;1.30;;;16.00;99.90;;;;;;5072868;28;20612;-70
2023/09/07 07:08:32;;;;;;;0.63;0.63;;;16.00;99.90;;;;;;5072676;28;20185;-70
2023/09/07 07:10:58;;;;;;;0.70;0.63;;;16.00;99.90;;;;;;5072794;28;20201;-70
2023/09/07 07:13:24;;;;;;;1.45;0.77;;;16.10;99.90;;;;;;5072612;28;20193;-70
2023/09/07 07:15:50;;;;;;;0.52;0.52;;;16.10;99.90;;;;;;5054786;28;20781;-70
2023/09/07 07:18:16;;;;;;;1.70;0.70;;;16.10;99.90;;;;;;5072242;28;20695;-70
2023/09/07 07:20:45;;;;;;;1.65;0.95;;;16.20;99.90;;;;;;5054524;28;20200;-70
2023/09/07 07:23:12;;;;;;;0.20;0.20;;;16.20;99.90;;;;;;5054528;28;20219;-70
2023/09/07 07:25:38;;;;;;;2.55;0.82;;;16.10;99.90;;;;;;5071956;28;21194;-69
2023/09/07 07:28:05;;;;;;;0.57;0.52;;;16.20;99.90;;;;;;5054530;28;20205;-70
2023/09/07 07:30:32;;;;;;;0.63;0.63;;;16.20;99.90;;;;;;5072346;28;20687;-70
2023/09/07 07:32:58;;;;;;;25.58;1.50;;;16.30;99.90;;;;;;5072525;28;20200;-75
2023/09/07 07:35:23;;;;;;;0.43;0.43;;;16.40;99.90;;;;;;5072012;28;20302;-75
2023/09/07 07:37:50;;;;;;;1.08;0.95;;;16.50;99.90;;;;;;5072178;28;20209;-75
2023/09/07 07:40:17;;;;;;;0.47;0.47;;;16.60;99.90;;;;;;5054299;28;20227;-76
2023/09/07 07:42:46;;;;;;;0.20;0.20;;;16.70;99.90;;;;;;5072482;28;20224;-76
2023/09/07 07:45:12;;;;;;;0.60;0.60;;;16.80;99.90;;;;;;5072107;28;20335;-75
2023/09/07 07:47:39;;;;;;;0.20;0.20;;;16.80;99.90;;;;;;5054018;28;20197;-76
2023/09/07 07:50:05;;;;;;;1.25;0.73;;;16.80;99.90;;;;;;5072164;28;20334;-75
2023/09/07 07:52:31;;;;;;;0.85;0.68;;;16.80;99.90;;;;;;5071817;28;20193;-75
2023/09/07 07:54:57;;;;;;;1.50;1.08;;;16.80;99.90;;;;;;5071429;28;20204;-76
2023/09/07 07:57:23;;;;;;;0.75;0.68;;;16.90;99.90;;;;;;5071804;28;20212;-75
2023/09/07 07:59:49;;;;;;;0.30;0.30;;;17.00;99.90;;;;;;5072045;28;20580;-75
2023/09/07 08:02:15;;;;;;;0.38;0.38;;;17.00;99.90;;;;;;5054085;28;20203;-71
2023/09/07 08:04:40;;;;;;;0.75;0.75;;;17.20;99.90;;;;;;5071510;28;20229;-70
2023/09/07 08:07:08;;;;;;;0.65;0.65;;;17.30;99.90;;;;;;5072009;28;20242;-70
2023/09/07 08:09:34;;;;;;;1.63;1.02;;;17.40;99.90;;;;;;5071774;28;20195;-70
2023/09/07 08:12:03;;;;;;;1.02;0.82;;;17.50;99.90;;;;;;5054040;28;20264;-71
2023/09/07 08:14:29;;;;;;;0.40;0.40;;;17.60;99.90;;;;;;5071239;28;20205;-70
2023/09/07 08:16:56;;;;;;;0.57;0.57;;;17.70;99.90;;;;;;5071841;28;20212;-71
2023/09/07 08:19:22;;;;;;;1.17;0.95;;;17.70;99.90;;;;;;5071592;28;20556;-70
2023/09/07 08:21:47;;;;;;;0.47;0.47;;;17.80;99.90;;;;;;5071746;28;20188;-70
2023/09/07 08:24:13;;;;;;;0.30;0.30;;;17.80;99.90;;;;;;5053824;28;20219;-70
2023/09/07 08:26:39;;;;;;;0.55;0.52;;;17.70;99.90;;;;;;5053619;28;20205;-70
2023/09/07 08:29:06;;;;;;;2.45;0.88;;;17.90;99.90;;;;;;5071670;28;20196;-71
2023/09/07 08:31:33;;;;;;;0.50;0.32;;;18.30;99.90;;;;;;5053655;28;20200;-70
2023/09/07 08:34:03;;;;;;;0.30;0.30;;;18.70;99.90;;;;;;5071426;28;20203;-71
2023/09/07 08:36:33;;;;;;;0.32;0.32;;;19.10;99.90;;;;;;5071358;28;20200;-71
2023/09/07 08:39:05;;;;;;;10.88;0.57;;;19.30;99.90;;;;;;5071885;28;20203;-71
2023/09/07 08:41:44;;;;;;;0.32;0.32;;;19.40;99.90;;;;;;5053465;28;20570;-71
2023/09/07 08:44:20;;;;;;;0.30;0.30;;;19.50;99.90;;;;;;5053661;28;20275;-70
2023/09/07 08:46:49;;;;;;;0.80;0.45;;;19.50;99.90;;;;;;5053674;28;20193;-70
2023/09/07 08:49:19;;;;;;;1.08;0.70;;;19.50;99.90;;;;;;5071528;28;20188;-70
2023/09/07 08:51:45;;;;;;;0.10;0.10;;;19.70;99.90;;;;;;5065157;28;20233;-70
2023/09/07 08:54:12;;;;;;;0.47;0.40;;;19.80;99.90;;;;;;5070202;28;20207;-70
2023/09/07 08:56:38;;;;;;;0.30;0.30;;;19.70;99.90;;;;;;5069892;28;20217;-69
2023/09/07 08:59:07;;;;;;;0.43;0.43;;;19.80;99.90;;;;;;5070319;28;20196;-70
2023/09/07 09:01:33;;;;;;;0.52;0.52;;;19.80;99.90;;;;;;5071304;28;20193;-70
2023/09/07 09:03:59;;;;;;;0.45;0.35;;;19.90;99.90;;;;;;5071004;28;20197;-71
2023/09/07 09:06:25;;;;;;;0.08;0.08;;;19.80;99.90;;;;;;5070055;28;20566;-70
2023/09/07 09:08:56;;;;;;;0.70;0.52;;;19.70;99.90;;;;;;5072710;28;20197;-70
2023/09/07 09:11:23;;;;;;;0.30;0.25;;;19.60;99.90;;;;;;5074967;28;20189;-72
2023/09/07 09:13:50;;;;;;;0.28;0.28;;;19.40;99.90;;;;;;5075142;28;20276;-72
2023/09/07 09:16:16;;;;;;;0.47;0.47;;;19.40;99.90;;;;;;5074723;28;22155;-72
2023/09/07 09:19:09;;;;;;;0.30;0.30;;;19.30;99.90;;;;;;5057004;28;20197;-72
2023/09/07 09:21:34;;;;;;;0.93;0.75;;;18.90;99.90;;;;;;5069918;28;20208;-72
2023/09/07 09:24:00;;;;;;;0.90;0.60;;;18.80;99.90;;;;;;5074577;28;20189;-72
2023/09/07 09:26:26;;;;;;;0.30;0.30;;;18.80;99.90;;;;;;5074602;28;20204;-72
2023/09/07 09:28:52;;;;;;;0.32;0.30;;;18.80;99.90;;;;;;5074611;28;20193;-72
2023/09/07 09:31:18;;;;;;;1.55;0.82;;;18.80;99.90;;;;;;5074336;28;20253;-72
2023/09/07 09:33:49;;;;;;;1.25;0.70;;;19.00;99.90;;;;;;5056605;28;20213;-72
2023/09/07 09:36:15;;;;;;;0.25;0.25;;;19.10;99.90;;;;;;5056620;28;20633;-72
2023/09/07 09:38:49;;;;;;;0.38;0.38;;;19.20;99.90;;;;;;5055993;28;20193;-72
2023/09/07 09:41:17;;;;;;;0.98;0.90;;;19.10;99.90;;;;;;5074577;28;20268;-72
2023/09/07 09:43:45;;;;;;;0.63;0.63;;;19.00;99.90;;;;;;5056375;28;20200;-71
2023/09/07 09:46:13;;;;;;;0.38;0.38;;;19.20;99.90;;;;;;5074540;28;20223;-72
2023/09/07 09:48:41;;;;;;;0.30;0.30;;;19.30;99.90;;;;;;5056111;28;20672;-72
2023/09/07 09:51:07;;;;;;;1.42;0.60;;;19.60;99.90;;;;;;5072957;28;20674;-72
2023/09/07 09:53:34;;;;;;;0.40;0.38;;;19.80;99.90;;;;;;5056180;28;20220;-72
2023/09/07 09:56:00;;;;;;;2.35;0.98;;;19.90;99.90;;;;;;5056220;28;20216;-72
2023/09/07 09:58:27;;;;;;;1.13;0.65;;;20.10;99.90;;;;;;5056216;28;20204;-72
2023/09/07 10:00:56;;;;;;;0.32;0.32;;;20.30;99.90;;;;;;5056257;28;20206;-72
2023/09/07 10:03:36;;;;;;;1.00;0.98;;;20.10;99.90;;;;;;5073771;28;20189;-71
2023/09/07 10:06:17;;;;;;;0.30;0.30;;;20.10;99.90;;;;;;5073556;28;20228;-72
2023/09/07 10:08:59;;;;;;;0.52;0.52;;;20.10;99.90;;;;;;5073996;28;20196;-73
2023/09/07 10:11:38;;;;;;;0.95;0.85;;;20.00;99.90;;;;;;5073790;28;20193;-72
2023/09/07 10:14:06;;;;;;;0.70;0.70;;;19.90;99.90;;;;;;5055575;28;20204;-72
2023/09/07 10:16:43;;;;;;;0.60;0.60;;;19.70;99.90;;;;;;5055493;28;20209;-72
2023/09/07 10:19:20;;;;;;;0.35;0.35;;;19.60;99.90;;;;;;5073340;28;20589;-73
2023/09/07 10:21:46;;;;;;;0.17;0.17;;;19.70;99.90;;;;;;5073854;28;20191;-72
2023/09/07 10:24:22;;;;;;;0.40;0.38;;;19.60;99.90;;;;;;5073777;28;20187;-71
2023/09/07 10:27:00;;;;;;;0.32;0.32;;;19.70;99.90;;;;;;5073416;28;20196;-71
2023/09/07 10:29:26;;;;;;;1.50;0.57;;;19.70;99.90;;;;;;5073421;28;20192;-72
2023/09/07 10:31:52;;;;;;;0.30;0.30;;;19.80;99.90;;;;;;5073547;28;20226;-70
2023/09/07 10:34:18;;;;;;;0.45;0.45;;;20.20;99.90;;;;;;5073368;28;20290;-70
2023/09/07 10:36:44;;;;;;;0.55;0.50;;;20.40;99.90;;;;;;5073256;28;20209;-71
2023/09/07 10:39:12;;;;;;;0.68;0.65;;;20.50;99.90;;;;;;5055298;28;20192;-71
2023/09/07 10:41:42;;;;;;;0.57;0.47;;;20.40;99.90;;;;;;5073107;28;20550;-70
2023/09/07 10:44:10;;;;;;;2.38;0.82;;;20.30;99.90;;;;;;5073148;28;20193;-70
2023/09/07 10:46:37;;;;;;;1.55;1.33;;;20.20;99.90;;;;;;5086174;28;20215;-71
2023/09/07 10:49:06;;;;;;;0.22;0.22;;;20.20;99.90;;;;;;5093497;28;20192;-70
2023/09/07 10:51:32;;;;;;;0.60;0.60;;;20.10;99.90;;;;;;5093128;28;20314;-70
2023/09/07 10:53:57;;;;;;;0.38;0.38;;;20.00;99.90;;;;;;5093251;28;20654;-70
2023/09/07 10:56:28;;;;;;;0.38;0.28;;;19.80;99.90;;;;;;5074703;28;20204;-70
2023/09/07 10:58:54;;;;;;;0.75;0.63;;;19.80;99.90;;;;;;5093564;28;20207;-69
2023/09/07 11:01:20;;;;;;;3.00;0.50;;;19.80;99.90;;;;;;5090865;28;20188;-70
2023/09/07 11:03:46;;;;;;;2.58;1.40;;;19.70;99.90;;;;;;5071469;28;20712;-70
2023/09/07 11:06:21;;;;;;;1.35;0.90;;;19.60;99.90;;;;;;5072843;28;20225;-70
2023/09/07 11:08:47;;;;;;;0.47;0.47;;;19.60;99.90;;;;;;5072939;28;20184;-70
2023/09/07 11:11:13;;;;;;;1.48;0.82;;;19.40;99.90;;;;;;5054767;28;20192;-71
2023/09/07 11:13:39;;;;;;;2.25;0.90;;;19.40;99.90;;;;;;5072462;28;20205;-71
2023/09/07 11:16:07;;;;;;;0.45;0.45;;;19.50;99.90;;;;;;5072443;28;20237;-71
2023/09/07 11:18:36;;;;;;;0.25;0.25;;;19.60;99.90;;;;;;5071323;28;20208;-71
2023/09/07 11:21:07;;;;;;;0.40;0.40;;;19.60;99.90;;;;;;5072695;28;20321;-71
2023/09/07 11:23:38;;;;;;;2.00;0.90;;;19.70;99.90;;;;;;5072253;28;20188;-70
2023/09/07 11:26:13;;;;;;;0.40;0.40;;;19.70;99.90;;;;;;5052622;28;20197;-69
2023/09/07 11:28:40;;;;;;;0.80;0.38;;;19.70;99.90;;;;;;5052543;28;20730;-71
2023/09/07 11:31:06;;;;;;;0.47;0.47;;;19.70;99.90;;;;;;5051655;28;20193;-71
2023/09/07 11:33:33;;;;;;;0.30;0.30;;;19.70;99.90;;;;;;5052141;28;20203;-71
2023/09/07 11:35:59;;;;;;;1.73;0.80;;;19.90;99.90;;;;;;5051113;28;20193;-70
2023/09/07 11:38:34;;;;;;;0.40;0.40;;;20.00;99.90;;;;;;5052102;28;20700;-70
2023/09/07 11:41:00;;;;;;;0.75;0.57;;;20.00;99.90;;;;;;5054163;28;20204;-70
2023/09/07 11:43:25;;;;;;;0.60;0.60;;;20.10;99.90;;;;;;5072119;28;20181;-70
2023/09/07 11:45:51;;;;;;;1.02;0.73;;;20.10;99.90;;;;;;5072277;28;20227;-70
2023/09/07 11:48:19;;;;;;;0.40;0.40;;;20.10;99.90;;;;;;5054367;28;20201;-70
2023/09/07 11:50:45;;;;;;;0.30;0.30;;;20.10;99.90;;;;;;5054111;28;20192;-70
2023/09/07 11:53:10;;;;;;;0.85;0.82;;;20.30;99.90;;;;;;5072104;28;20267;-70
2023/09/07 11:55:37;;;;;;;0.38;0.25;;;20.40;99.90;;;;;;5071878;28;20200;-70
2023/09/07 11:58:04;;;;;;;0.63;0.63;;;20.50;99.90;;;;;;5053782;28;20619;-68
2023/09/07 12:00:31;;;;;;;1.92;0.98;;;20.40;99.90;;;;;;5071749;28;20267;-70
2023/09/07 12:02:57;;;;;;;0.25;0.25;;;20.40;99.90;;;;;;5071868;28;20197;-69
2023/09/07 12:05:23;;;;;;;1.15;1.05;;;20.40;99.90;;;;;;5071809;28;20567;-70
2023/09/07 12:07:48;;;;;;;0.47;0.43;;;20.40;99.90;;;;;;5071996;28;20203;-70
2023/09/07 12:10:14;;;;;;;0.90;0.75;;;20.50;99.90;;;;;;5053939;28;20197;-70
2023/09/07 12:12:40;;;;;;;1.30;0.57;;;20.60;99.90;;;;;;5071825;28;20206;-69
2023/09/07 12:15:07;;;;;;;0.30;0.30;;;20.60;99.90;;;;;;5053911;28;20201;-69
2023/09/07 12:17:33;;;;;;;0.50;0.50;;;20.60;99.90;;;;;;5053545;28;20209;-69
2023/09/07 12:20:00;;;;;;;0.45;0.45;;;20.60;99.90;;;;;;5071592;28;20192;-70
2023/09/07 12:22:29;;;;;;;1.92;0.90;;;20.70;99.90;;;;;;5054093;28;20227;-70
2023/09/07 12:24:55;;;;;;;0.43;0.43;;;20.80;99.90;;;;;;5053523;28;20192;-71
2023/09/07 12:27:21;;;;;;;2.35;0.82;;;20.90;99.90;;;;;;5071604;28;20216;-69
2023/09/07 12:29:47;;;;;;;0.50;0.50;;;20.90;99.90;;;;;;5053796;28;20655;-69
2023/09/07 12:32:13;;;;;;;0.30;0.30;;;20.90;99.90;;;;;;5071771;28;20196;-70
2023/09/07 12:34:38;;;;;;;0.63;0.50;;;20.90;99.90;;;;;;5053672;28;20678;-70
2023/09/07 12:37:04;;;;;;;0.32;0.32;;;20.90;99.90;;;;;;5071417;28;20710;-70
2023/09/07 12:39:31;;;;;;;1.10;0.90;;;21.00;99.90;;;;;;5053316;28;20230;-69
2023/09/07 12:41:57;;;;;;;1.70;0.57;;;21.30;99.90;;;;;;5073347;28;20586;-71
2023/09/07 12:44:23;;;;;;;1.42;0.90;;;21.50;99.90;;;;;;5075514;28;20200;-69